Borough Hall, New York
Current Conditions -  °F | °C
As of 2:51 PM on Monday 22 Dec 2014 (Local Time) from KLGA Reporting Station
Overcast Overcast  
Wind Chill: 34°   Ceiling: 1600
Heat Index: 41°   Visibility: 10mi
Dew Point: 37°   Wind: 12mph
Humidity: 86%   Direction: 50°NE
Pressure: 30.24"   Gusts: NA
Location:  40.7157°N, 73.8267°W
Report Text: KLGA 221951Z 05010KT 10SM FEW009 OVC016 05/03 A3024 RMK AO2 SLP238 T00500028
Loading
Personal Weather Stations






























Interactive Weather Map New forecast layout! Learn more

10-Day Weather Forecast

Advertisements
Track Severe Weather on mobile